createdAt,value
2023-04-27T00:02:12.666Z,6.03
2023-04-27T00:05:15.280Z,4.03
2023-04-27T00:08:17.726Z,4.25
2023-04-27T00:11:20.019Z,5.95
2023-04-27T00:14:22.387Z,5.35
2023-04-27T00:17:24.746Z,5.27
2023-04-27T00:20:27.093Z,6.07
2023-04-27T00:23:29.391Z,7.25
2023-04-27T00:26:31.825Z,5.78
2023-04-27T00:29:35.277Z,6.93
2023-04-27T00:32:37.642Z,5.80
2023-04-27T00:35:40.018Z,5.85
2023-04-27T00:38:43.052Z,4.82
2023-04-27T00:41:45.762Z,6.07
2023-04-27T00:44:48.162Z,5.57
2023-04-27T00:47:50.942Z,6.67
2023-04-27T00:50:53.671Z,6.68
2023-04-27T00:53:59.204Z,4.05
2023-04-27T00:57:02.324Z,6.18
2023-04-27T01:00:07.200Z,7.20
2023-04-27T01:03:09.881Z,5.90
2023-04-27T01:06:12.337Z,4.72
2023-04-27T01:09:16.562Z,5.85
2023-04-27T01:12:18.943Z,6.75
2023-04-27T01:15:21.522Z,5.78
2023-04-27T01:18:23.937Z,3.97
2023-04-27T01:21:27.310Z,5.55
2023-04-27T01:24:29.677Z,4.47
2023-04-27T01:27:32.971Z,4.55
2023-04-27T01:30:35.436Z,2.70
2023-04-27T01:33:38.414Z,3.67
2023-04-27T01:36:41.966Z,3.65
2023-04-27T01:39:44.483Z,3.67
2023-04-27T01:42:46.821Z,3.90
2023-04-27T01:45:49.199Z,3.72
2023-04-27T01:48:51.601Z,4.80
2023-04-27T01:51:53.965Z,7.25
2023-04-27T01:54:56.366Z,3.47
2023-04-27T01:57:58.812Z,7.60
2023-04-27T02:01:01.157Z,5.15
2023-04-27T02:04:05.020Z,3.73
2023-04-27T02:07:07.538Z,5.65
2023-04-27T02:10:11.043Z,3.63
2023-04-27T02:13:13.441Z,4.47
2023-04-27T02:16:16.029Z,6.75
2023-04-27T02:19:18.389Z,3.10
2023-04-27T02:22:20.881Z,3.88
2023-04-27T02:25:23.270Z,5.75
2023-04-27T02:28:25.633Z,3.63
2023-04-27T02:31:29.249Z,3.22
2023-04-27T02:34:31.640Z,5.57
2023-04-27T02:37:34.844Z,6.18
2023-04-27T02:40:37.480Z,3.63
2023-04-27T02:43:42.004Z,4.25
2023-04-27T02:46:44.416Z,4.35
2023-04-27T02:49:46.878Z,4.83
2023-04-27T02:52:49.262Z,4.25
2023-04-27T02:55:52.076Z,3.67
2023-04-27T02:58:54.401Z,4.35
2023-04-27T03:01:56.834Z,4.65
2023-04-27T03:04:59.439Z,6.23
2023-04-27T03:08:02.070Z,4.72
2023-04-27T03:11:04.435Z,5.53
2023-04-27T03:14:06.796Z,7.05
2023-04-27T03:17:10.508Z,4.68
2023-04-27T03:20:13.041Z,6.77
2023-04-27T03:23:15.449Z,4.95
2023-04-27T03:26:17.809Z,3.97
2023-04-27T03:29:20.228Z,6.63
2023-04-27T03:32:22.612Z,6.22
2023-04-27T03:35:25.007Z,6.40
2023-04-27T03:38:27.498Z,5.22
2023-04-27T03:41:29.802Z,5.13
2023-04-27T03:44:33.642Z,6.00
2023-04-27T03:47:35.988Z,6.72
2023-04-27T03:50:38.311Z,6.50
2023-04-27T03:53:40.807Z,7.50
2023-04-27T03:56:44.818Z,4.78
2023-04-27T03:59:47.287Z,5.93
2023-04-27T04:02:49.845Z,5.38
2023-04-27T04:05:52.393Z,7.33
2023-04-27T04:08:55.039Z,4.30
2023-04-27T04:11:57.995Z,4.72
2023-04-27T04:15:00.344Z,3.08
2023-04-27T04:18:03.399Z,3.13
2023-04-27T04:21:05.969Z,4.73
2023-04-27T04:24:08.372Z,4.25
2023-04-27T04:27:10.788Z,6.90
2023-04-27T04:30:13.487Z,7.80
2023-04-27T04:33:17.011Z,6.40
2023-04-27T04:36:19.579Z,6.30
2023-04-27T04:39:21.911Z,5.72
2023-04-27T04:42:24.272Z,3.45
2023-04-27T04:45:27.136Z,4.90
2023-04-27T04:48:29.643Z,3.08
2023-04-27T04:51:32.028Z,4.77
2023-04-27T04:54:34.510Z,4.38
2023-04-27T04:57:36.887Z,5.57
2023-04-27T05:00:39.282Z,5.65
2023-04-27T05:03:41.755Z,5.00
2023-04-27T05:06:44.195Z,6.50
2023-04-27T05:09:46.569Z,8.77
2023-04-27T05:12:48.913Z,6.05
2023-04-27T05:15:52.075Z,6.00
2023-04-27T05:18:54.899Z,4.13
2023-04-27T05:22:00.724Z,5.80
2023-04-27T05:25:03.964Z,6.38
2023-04-27T05:28:06.354Z,6.65
2023-04-27T05:31:08.945Z,5.60
2023-04-27T05:34:11.355Z,4.35
2023-04-27T05:37:14.264Z,7.57
2023-04-27T05:40:17.102Z,4.00
2023-04-27T05:43:19.592Z,6.95
2023-04-27T05:46:27.607Z,7.20
2023-04-27T05:49:30.029Z,6.43
2023-04-27T05:52:32.386Z,8.83
2023-04-27T05:55:41.108Z,8.52
2023-04-27T05:58:44.103Z,6.80
2023-04-27T06:01:46.442Z,9.50
2023-04-27T06:04:48.813Z,5.40
2023-04-27T06:07:51.898Z,4.90
2023-04-27T06:10:54.281Z,6.80
2023-04-27T06:13:57.073Z,4.28
2023-04-27T06:16:59.474Z,5.07
2023-04-27T06:20:01.837Z,5.28
2023-04-27T06:23:04.164Z,5.70
2023-04-27T06:26:06.564Z,4.60
2023-04-27T06:29:08.997Z,3.78
2023-04-27T06:32:11.882Z,5.97
2023-04-27T06:35:17.814Z,5.07
2023-04-27T06:38:20.198Z,4.30
2023-04-27T06:41:26.354Z,6.63
2023-04-27T06:44:28.690Z,7.95
2023-04-27T06:47:31.178Z,5.28
2023-04-27T06:50:33.533Z,4.25
2023-04-27T06:53:35.960Z,3.67
2023-04-27T06:56:38.525Z,6.97
2023-04-27T06:59:40.983Z,4.93
2023-04-27T07:02:43.976Z,4.82
2023-04-27T07:05:46.783Z,3.35
2023-04-27T07:08:49.111Z,4.30
2023-04-27T07:11:51.543Z,3.90
2023-04-27T07:14:53.919Z,4.50
2023-04-27T07:17:56.470Z,6.05
2023-04-27T07:20:58.837Z,4.35
2023-04-27T07:24:01.232Z,4.30
2023-04-27T07:27:04.156Z,5.68
2023-04-27T07:30:09.456Z,6.20
2023-04-27T07:33:11.825Z,6.95
2023-04-27T07:36:14.166Z,6.15
2023-04-27T07:39:16.855Z,3.57
2023-04-27T07:42:19.661Z,4.95
2023-04-27T07:45:22.434Z,6.40
2023-04-27T07:48:25.137Z,7.22
2023-04-27T07:51:28.881Z,4.38
2023-04-27T07:54:31.655Z,4.67
2023-04-27T07:57:34.094Z,3.88
2023-04-27T08:00:36.562Z,10.00
2023-04-27T08:03:39.188Z,3.63
2023-04-27T08:06:42.105Z,4.13
2023-04-27T08:09:44.750Z,4.53
2023-04-27T08:12:47.097Z,3.80
2023-04-27T08:15:49.546Z,6.80
2023-04-27T08:18:52.131Z,6.20
2023-04-27T08:21:54.434Z,3.13
2023-04-27T08:24:56.830Z,5.20
2023-04-27T08:27:59.169Z,6.00
2023-04-27T08:31:01.969Z,5.85
2023-04-27T08:34:04.368Z,4.13
2023-04-27T08:37:07.012Z,7.70
2023-04-27T08:40:10.060Z,3.90
2023-04-27T08:43:12.437Z,4.30
2023-04-27T08:46:14.852Z,3.00
2023-04-27T08:49:17.806Z,3.10
2023-04-27T08:52:20.268Z,7.85
2023-04-27T08:55:23.710Z,3.50
2023-04-27T08:58:39.413Z,6.07
2023-04-27T09:01:49.162Z,7.78
2023-04-27T09:04:52.114Z,5.47
2023-04-27T09:08:05.798Z,4.75
2023-04-27T09:11:08.313Z,6.57
2023-04-27T09:14:17.759Z,4.35
2023-04-27T09:17:24.993Z,3.17
2023-04-27T09:20:27.509Z,4.22
2023-04-27T09:23:30.495Z,5.00
2023-04-27T09:26:32.848Z,3.73
2023-04-27T09:29:38.911Z,6.88
2023-04-27T10:07:49.604Z,3.13
2023-04-27T10:10:53.379Z,5.97
2023-04-27T10:13:55.974Z,5.72
2023-04-27T10:16:59.771Z,4.45
2023-04-27T10:20:09.979Z,3.70
2023-04-27T10:23:22.857Z,3.60
2023-04-27T10:26:28.355Z,6.93
2023-04-27T10:29:36.855Z,5.15
2023-04-27T10:32:58.677Z,4.85
2023-04-27T10:36:01.123Z,3.85
2023-04-27T10:39:05.457Z,5.15
2023-04-27T10:42:08.064Z,2.33
2023-04-27T10:45:11.560Z,5.43
2023-04-27T10:48:16.797Z,5.72
2023-04-27T10:51:19.168Z,3.60
2023-04-27T10:54:21.559Z,4.68
2023-04-27T10:57:23.901Z,3.50
2023-04-27T11:00:39.419Z,5.97
2023-04-27T11:03:44.598Z,3.97
2023-04-27T11:06:47.164Z,6.38
2023-04-27T11:09:49.588Z,5.57
2023-04-27T11:12:51.918Z,4.80
2023-04-27T11:15:56.215Z,3.00
2023-04-27T11:19:04.732Z,4.38
2023-04-27T11:22:07.152Z,6.43
2023-04-27T11:25:09.538Z,5.32
2023-04-27T11:28:22.053Z,6.10
2023-04-27T11:31:24.801Z,3.30
2023-04-27T11:34:27.519Z,4.03
2023-04-27T11:37:29.862Z,5.05
2023-04-27T11:40:34.553Z,3.80
2023-04-27T11:43:41.616Z,4.03
2023-04-27T11:46:44.800Z,6.57
2023-04-27T11:49:48.922Z,6.80
2023-04-27T11:52:51.810Z,7.32
2023-04-27T11:55:54.455Z,3.97
2023-04-27T11:58:56.818Z,4.70
2023-04-27T12:02:00.321Z,5.10
2023-04-27T12:05:03.678Z,5.75
2023-04-27T12:08:06.825Z,5.53
2023-04-27T12:11:09.229Z,4.18
2023-04-27T12:14:11.737Z,7.57
2023-04-27T12:17:14.272Z,4.40
2023-04-27T12:20:16.696Z,6.95
2023-04-27T12:23:19.065Z,10.60
2023-04-27T12:26:21.610Z,5.20
2023-04-27T12:29:24.623Z,2.77
2023-04-27T12:32:28.049Z,4.95
2023-04-27T12:35:32.245Z,4.35
2023-04-27T12:38:34.642Z,5.43
2023-04-27T12:41:37.014Z,11.85
2023-04-27T12:44:39.354Z,8.77
2023-04-27T12:47:58.267Z,3.30
2023-04-27T12:51:05.136Z,5.40
2023-04-27T12:54:09.116Z,5.55
2023-04-27T12:57:12.237Z,6.82
2023-04-27T13:00:15.354Z,11.87
2023-04-27T13:03:17.855Z,4.60
2023-04-27T13:06:20.819Z,4.90
2023-04-27T13:09:23.186Z,6.32
2023-04-27T13:12:25.673Z,6.15
2023-04-27T13:15:28.651Z,3.53
2023-04-27T13:18:32.869Z,6.13
2023-04-27T13:21:36.857Z,7.28
2023-04-27T13:24:39.237Z,7.95
2023-04-27T13:27:41.628Z,5.35
2023-04-27T13:30:43.952Z,3.67
2023-04-27T13:33:46.356Z,4.63
2023-04-27T13:36:49.529Z,4.18
2023-04-27T13:39:52.165Z,6.32
2023-04-27T13:42:54.533Z,4.22
2023-04-27T13:46:00.769Z,5.17
2023-04-27T13:49:03.640Z,3.53
2023-04-27T13:52:06.068Z,3.88
2023-04-27T13:55:09.457Z,4.32
2023-04-27T13:58:12.012Z,5.25
2023-04-27T14:01:14.373Z,4.03
2023-04-27T14:04:16.856Z,5.47
2023-04-27T14:07:19.887Z,5.15
2023-04-27T14:10:25.280Z,4.10
2023-04-27T14:13:27.688Z,6.53
2023-04-27T14:16:30.124Z,3.70
2023-04-27T14:19:32.899Z,6.82
2023-04-27T14:22:35.603Z,5.57
2023-04-27T14:25:39.157Z,6.55
2023-04-27T14:28:41.541Z,6.07
2023-04-27T14:31:44.006Z,6.50
2023-04-27T14:34:46.462Z,9.10
2023-04-27T14:37:48.867Z,9.30
2023-04-27T14:40:51.177Z,4.03
2023-04-27T14:43:54.311Z,4.45
2023-04-27T14:46:56.699Z,3.70
2023-04-27T14:49:59.107Z,5.43
2023-04-27T14:53:01.887Z,4.30
2023-04-27T14:56:04.586Z,4.65
2023-04-27T14:59:07.094Z,5.97
2023-04-27T15:02:09.448Z,5.57
2023-04-27T15:05:11.913Z,3.03
2023-04-27T15:08:14.244Z,5.78
2023-04-27T15:11:16.658Z,6.28
2023-04-27T15:14:19.008Z,3.70
2023-04-27T15:17:21.438Z,5.13
2023-04-27T15:20:23.737Z,2.72
2023-04-27T15:23:26.892Z,4.45
2023-04-27T15:26:29.262Z,4.47
2023-04-27T15:29:31.614Z,3.33
2023-04-27T15:32:34.007Z,3.20
2023-04-27T15:35:38.969Z,5.13
2023-04-27T15:38:41.329Z,6.60
2023-04-27T15:41:44.750Z,6.60
2023-04-27T15:44:47.193Z,4.43
2023-04-27T15:47:49.613Z,4.63
2023-04-27T15:50:52.054Z,4.22
2023-04-27T15:53:54.410Z,5.20
2023-04-27T15:56:56.853Z,13.95
2023-04-27T15:59:59.303Z,6.95
2023-04-27T16:03:01.993Z,6.63
2023-04-27T16:06:04.649Z,10.27
2023-04-27T16:09:10.446Z,9.50
2023-04-27T16:12:13.053Z,4.13
2023-04-27T16:15:15.432Z,8.75
2023-04-27T16:18:17.826Z,7.63
2023-04-27T16:21:20.169Z,7.15
2023-04-27T16:24:22.484Z,4.80
2023-04-27T16:27:25.661Z,4.38
2023-04-27T16:30:28.002Z,5.22
2023-04-27T16:33:30.351Z,4.40
2023-04-27T16:36:35.470Z,3.92
2023-04-27T16:39:38.133Z,6.38
2023-04-27T16:42:40.813Z,30.95
2023-04-27T16:45:43.311Z,23.75
2023-04-27T16:48:45.770Z,20.43
2023-04-27T16:51:48.145Z,14.75
2023-04-27T16:54:50.517Z,16.08
2023-04-27T16:57:52.876Z,8.70
2023-04-27T17:00:55.594Z,4.57
2023-04-27T17:03:58.604Z,7.37
2023-04-27T17:07:01.535Z,9.63
2023-04-27T17:10:05.684Z,8.30
2023-04-27T17:13:10.650Z,9.80
2023-04-27T17:16:13.673Z,9.90
2023-04-27T17:19:16.306Z,9.97
2023-04-27T17:22:18.712Z,13.68
2023-04-27T17:25:21.157Z,11.10
2023-04-27T17:28:23.530Z,10.38
2023-04-27T17:31:26.381Z,8.68
2023-04-27T17:34:28.796Z,11.37
2023-04-27T17:37:31.375Z,8.35
2023-04-27T17:40:33.706Z,12.02
2023-04-27T17:43:37.706Z,8.40
2023-04-27T17:46:45.752Z,9.35
2023-04-27T17:49:48.121Z,8.33
2023-04-27T17:52:51.439Z,12.55
2023-04-27T17:55:53.812Z,21.13
2023-04-27T17:58:56.139Z,41.03
2023-04-27T18:01:58.824Z,27.38
2023-04-27T18:05:01.253Z,71.27
2023-04-27T18:08:03.672Z,41.10
2023-04-27T18:11:06.884Z,14.98
2023-04-27T18:14:09.248Z,15.00
2023-04-27T18:17:11.646Z,23.98
2023-04-27T18:20:15.641Z,22.83
2023-04-27T18:23:18.001Z,16.63
2023-04-27T18:26:20.397Z,18.77
2023-04-27T18:29:22.704Z,12.35
2023-04-27T18:32:25.124Z,19.05
2023-04-27T18:35:27.548Z,21.97
2023-04-27T18:38:29.892Z,34.72
2023-04-27T18:41:32.382Z,41.13
2023-04-27T18:44:34.775Z,51.90
2023-04-27T18:47:37.208Z,49.03
2023-04-27T18:50:39.601Z,42.63
2023-04-27T18:53:41.971Z,39.28
2023-04-27T18:56:44.283Z,46.13
2023-04-27T18:59:46.910Z,39.08
2023-04-27T19:02:49.355Z,32.75
2023-04-27T19:05:52.839Z,28.50
2023-04-27T19:08:55.828Z,26.85
2023-04-27T19:12:02.997Z,27.40
2023-04-27T19:15:07.622Z,20.00
2023-04-27T19:18:11.646Z,13.15
2023-04-27T19:21:14.348Z,11.13
2023-04-27T19:24:17.385Z,13.45
2023-04-27T19:27:19.773Z,10.52
2023-04-27T19:30:22.183Z,11.50
2023-04-27T19:33:24.933Z,7.97
2023-04-27T19:36:28.194Z,9.80
2023-04-27T19:39:32.370Z,13.82
2023-04-27T19:42:36.604Z,17.92
2023-04-27T19:45:39.748Z,12.82
2023-04-27T19:48:42.539Z,11.68
2023-04-27T19:51:44.960Z,9.37
2023-04-27T19:54:52.256Z,12.52
2023-04-27T19:57:54.628Z,8.82
2023-04-27T20:00:56.970Z,9.27
2023-04-27T20:03:59.496Z,14.32
2023-04-27T20:07:03.733Z,12.97
2023-04-27T20:10:07.750Z,14.88
2023-04-27T20:13:10.131Z,11.45
2023-04-27T20:16:13.030Z,12.57
2023-04-27T20:19:17.931Z,12.25
2023-04-27T20:22:20.246Z,15.03
2023-04-27T20:25:23.023Z,12.68
2023-04-27T20:28:25.366Z,13.52
2023-04-27T20:31:27.727Z,15.77
2023-04-27T20:34:30.108Z,15.27
2023-04-27T20:37:32.515Z,15.43
2023-04-27T20:40:34.992Z,15.13
2023-04-27T20:43:39.183Z,14.18
2023-04-27T20:46:41.630Z,14.93
2023-04-27T20:49:44.058Z,14.38
2023-04-27T20:52:47.116Z,18.63
2023-04-27T20:55:49.753Z,9.80
2023-04-27T20:58:52.306Z,10.52
2023-04-27T21:01:54.637Z,13.10
2023-04-27T21:04:57.177Z,8.57
2023-04-27T21:07:59.562Z,6.93
2023-04-27T21:11:01.948Z,13.25
2023-04-27T21:14:04.300Z,7.53
2023-04-27T21:17:06.653Z,7.63
2023-04-27T21:20:09.966Z,11.38
2023-04-27T21:23:14.774Z,12.53
2023-04-27T21:26:17.130Z,11.05
2023-04-27T21:29:19.450Z,18.20
2023-04-27T21:32:21.777Z,19.98
2023-04-27T21:35:24.135Z,41.08
2023-04-27T21:38:26.772Z,31.40
2023-04-27T21:41:29.151Z,20.80
2023-04-27T21:44:31.462Z,20.20
2023-04-27T21:47:33.828Z,16.70
2023-04-27T21:50:36.369Z,14.55
2023-04-27T21:53:38.680Z,11.23
2023-04-27T21:56:41.127Z,8.27
2023-04-27T21:59:43.633Z,11.65
2023-04-27T22:02:46.298Z,7.15
2023-04-27T22:05:52.873Z,5.63
2023-04-27T22:08:55.431Z,14.10
2023-04-27T22:11:57.935Z,16.83
2023-04-27T22:15:00.444Z,18.27
2023-04-27T22:18:06.848Z,9.00
2023-04-27T22:21:10.301Z,10.13
2023-04-27T22:24:12.939Z,9.10
2023-04-27T22:27:15.458Z,8.75
2023-04-27T22:30:17.996Z,10.60
2023-04-27T22:33:20.523Z,8.27
2023-04-27T22:36:22.998Z,9.70
2023-04-27T22:39:25.846Z,12.23
2023-04-27T22:42:28.333Z,17.50
2023-04-27T22:45:30.871Z,12.88
2023-04-27T22:48:33.680Z,13.20
2023-04-27T22:51:36.775Z,12.45
2023-04-27T22:54:39.281Z,12.80
2023-04-27T22:57:42.011Z,9.90
2023-04-27T23:00:44.576Z,9.32
2023-04-27T23:03:47.224Z,10.68
2023-04-27T23:06:50.129Z,9.30
2023-04-27T23:09:53.110Z,10.53
2023-04-27T23:12:57.158Z,13.32
2023-04-27T23:15:59.723Z,12.77
2023-04-27T23:19:02.302Z,10.95
2023-04-27T23:22:04.788Z,8.80
2023-04-27T23:25:07.628Z,7.73
2023-04-27T23:28:10.106Z,8.93
2023-04-27T23:31:12.727Z,12.02
2023-04-27T23:34:15.840Z,8.23
2023-04-27T23:37:18.645Z,7.35
2023-04-27T23:40:21.276Z,10.50
2023-04-27T23:43:23.747Z,10.35
2023-04-27T23:46:26.334Z,9.35
2023-04-27T23:49:28.829Z,8.00
2023-04-27T23:52:31.320Z,9.90
2023-04-27T23:55:37.182Z,8.50
2023-04-27T23:58:39.632Z,9.82
